sensor_id;sensor_type;location;lat;lon;timestamp;P1;durP1;ratioP1;P2;durP2;ratioP2
18867;SDS011;9563;49.240;9.088;2023-04-06T05:00:57;18.20;;;9.40;;
18867;SDS011;9563;49.240;9.088;2023-04-06T05:03:24;20.47;;;9.23;;
18867;SDS011;9563;49.240;9.088;2023-04-06T05:05:52;15.67;;;8.33;;
18867;SDS011;9563;49.240;9.088;2023-04-06T05:08:19;16.37;;;8.13;;
18867;SDS011;9563;49.240;9.088;2023-04-06T05:10:47;15.13;;;8.23;;
18867;SDS011;9563;49.240;9.088;2023-04-06T05:13:14;12.37;;;7.90;;
18867;SDS011;9563;49.240;9.088;2023-04-06T05:15:41;11.77;;;7.40;;
18867;SDS011;9563;49.240;9.088;2023-04-06T05:18:10;14.00;;;8.77;;
18867;SDS011;9563;49.240;9.088;2023-04-06T05:20:39;16.40;;;7.47;;
18867;SDS011;9563;49.240;9.088;2023-04-06T05:23:05;15.03;;;7.53;;
18867;SDS011;9563;49.240;9.088;2023-04-06T05:25:32;13.80;;;7.67;;
18867;SDS011;9563;49.240;9.088;2023-04-06T05:27:59;16.10;;;8.67;;
18867;SDS011;9563;49.240;9.088;2023-04-06T05:30:26;15.73;;;8.47;;
18867;SDS011;9563;49.240;9.088;2023-04-06T05:32:53;13.30;;;7.67;;
18867;SDS011;9563;49.240;9.088;2023-04-06T05:35:22;13.37;;;8.13;;
18867;SDS011;9563;49.240;9.088;2023-04-06T05:37:49;17.67;;;7.67;;
18867;SDS011;9563;49.240;9.088;2023-04-06T05:40:16;14.57;;;7.87;;
18867;SDS011;9563;49.240;9.088;2023-04-06T05:42:43;14.07;;;7.90;;
18867;SDS011;9563;49.240;9.088;2023-04-06T05:45:10;13.63;;;7.97;;
18867;SDS011;9563;49.240;9.088;2023-04-06T05:47:43;14.90;;;7.77;;
18867;SDS011;9563;49.240;9.088;2023-04-06T05:50:11;14.60;;;7.73;;
18867;SDS011;9563;49.240;9.088;2023-04-06T05:52:39;15.37;;;7.87;;
18867;SDS011;9563;49.240;9.088;2023-04-06T05:55:08;12.50;;;7.77;;
18867;SDS011;9563;49.240;9.088;2023-04-06T05:57:36;13.93;;;8.27;;
18867;SDS011;9563;49.240;9.088;2023-04-06T06:00:03;17.53;;;8.37;;
18867;SDS011;9563;49.240;9.088;2023-04-06T06:02:31;15.27;;;8.53;;
18867;SDS011;9563;49.240;9.088;2023-04-06T06:04:58;14.90;;;8.23;;
18867;SDS011;9563;49.240;9.088;2023-04-06T06:07:25;16.47;;;8.20;;
18867;SDS011;9563;49.240;9.088;2023-04-06T06:09:54;16.00;;;9.00;;
18867;SDS011;9563;49.240;9.088;2023-04-06T06:12:23;18.03;;;8.93;;
18867;SDS011;9563;49.240;9.088;2023-04-06T06:14:50;19.07;;;8.80;;
18867;SDS011;9563;49.240;9.088;2023-04-06T06:17:17;16.63;;;8.40;;
18867;SDS011;9563;49.240;9.088;2023-04-06T06:19:44;23.10;;;8.43;;
18867;SDS011;9563;49.240;9.088;2023-04-06T06:22:11;22.37;;;8.93;;
18867;SDS011;9563;49.240;9.088;2023-04-06T06:24:38;18.33;;;9.23;;
18867;SDS011;9563;49.240;9.088;2023-04-06T06:27:07;20.57;;;10.03;;
18867;SDS011;9563;49.240;9.088;2023-04-06T06:29:34;18.07;;;10.67;;
18867;SDS011;9563;49.240;9.088;2023-04-06T06:32:01;16.97;;;9.53;;
18867;SDS011;9563;49.240;9.088;2023-04-06T06:34:28;14.83;;;9.17;;
18867;SDS011;9563;49.240;9.088;2023-04-06T06:36:55;16.00;;;9.97;;
18867;SDS011;9563;49.240;9.088;2023-04-06T06:39:22;19.83;;;10.27;;
18867;SDS011;9563;49.240;9.088;2023-04-06T06:41:50;15.73;;;8.70;;
18867;SDS011;9563;49.240;9.088;2023-04-06T06:44:18;20.53;;;9.63;;
18867;SDS011;9563;49.240;9.088;2023-04-06T06:46:45;17.63;;;8.70;;
18867;SDS011;9563;49.240;9.088;2023-04-06T06:49:12;16.70;;;9.23;;
18867;SDS011;9563;49.240;9.088;2023-04-06T06:51:39;17.30;;;8.50;;
18867;SDS011;9563;49.240;9.088;2023-04-06T06:54:06;15.27;;;9.13;;
18867;SDS011;9563;49.240;9.088;2023-04-06T06:56:33;16.97;;;8.47;;
18867;SDS011;9563;49.240;9.088;2023-04-06T06:59:02;14.97;;;9.20;;
18867;SDS011;9563;49.240;9.088;2023-04-06T07:01:32;16.27;;;9.07;;
18867;SDS011;9563;49.240;9.088;2023-04-06T07:03:59;19.00;;;8.73;;
18867;SDS011;9563;49.240;9.088;2023-04-06T07:06:26;14.27;;;7.83;;
18867;SDS011;9563;49.240;9.088;2023-04-06T07:08:53;16.20;;;9.17;;
18867;SDS011;9563;49.240;9.088;2023-04-06T07:11:20;17.87;;;9.07;;
18867;SDS011;9563;49.240;9.088;2023-04-06T07:13:47;15.27;;;8.60;;
18867;SDS011;9563;49.240;9.088;2023-04-06T07:16:14;13.40;;;8.70;;
18867;SDS011;9563;49.240;9.088;2023-04-06T07:18:43;18.53;;;8.50;;
18867;SDS011;9563;49.240;9.088;2023-04-06T07:21:10;14.10;;;8.70;;
18867;SDS011;9563;49.240;9.088;2023-04-06T07:23:37;11.60;;;8.00;;
18867;SDS011;9563;49.240;9.088;2023-04-06T07:26:05;12.70;;;8.13;;
18867;SDS011;9563;49.240;9.088;2023-04-06T07:28:32;15.43;;;8.60;;
18867;SDS011;9563;49.240;9.088;2023-04-06T07:30:59;15.87;;;9.03;;
18867;SDS011;9563;49.240;9.088;2023-04-06T07:33:26;13.93;;;8.97;;
18867;SDS011;9563;49.240;9.088;2023-04-06T07:35:56;13.47;;;8.27;;
18867;SDS011;9563;49.240;9.088;2023-04-06T07:38:23;15.83;;;8.43;;
18867;SDS011;9563;49.240;9.088;2023-04-06T07:40:51;14.03;;;8.63;;
18867;SDS011;9563;49.240;9.088;2023-04-06T07:43:18;12.40;;;8.47;;
18867;SDS011;9563;49.240;9.088;2023-04-06T07:45:45;15.87;;;8.50;;
18867;SDS011;9563;49.240;9.088;2023-04-06T07:48:12;17.63;;;8.97;;
18867;SDS011;9563;49.240;9.088;2023-04-06T07:50:39;14.73;;;7.93;;
18867;SDS011;9563;49.240;9.088;2023-04-06T07:53:07;17.57;;;8.37;;
18867;SDS011;9563;49.240;9.088;2023-04-06T07:55:35;14.40;;;9.00;;
18867;SDS011;9563;49.240;9.088;2023-04-06T07:58:02;16.33;;;8.93;;
18867;SDS011;9563;49.240;9.088;2023-04-06T08:00:29;12.80;;;8.57;;
18867;SDS011;9563;49.240;9.088;2023-04-06T08:02:57;15.97;;;8.90;;
18867;SDS011;9563;49.240;9.088;2023-04-06T08:05:24;13.57;;;8.83;;
18867;SDS011;9563;49.240;9.088;2023-04-06T08:07:51;15.27;;;9.10;;
18867;SDS011;9563;49.240;9.088;2023-04-06T08:10:20;15.33;;;9.20;;
18867;SDS011;9563;49.240;9.088;2023-04-06T08:12:47;14.53;;;8.77;;
18867;SDS011;9563;49.240;9.088;2023-04-06T08:15:14;14.40;;;8.30;;
18867;SDS011;9563;49.240;9.088;2023-04-06T08:17:43;13.53;;;8.60;;
18867;SDS011;9563;49.240;9.088;2023-04-06T08:20:10;19.07;;;9.17;;
18867;SDS011;9563;49.240;9.088;2023-04-06T08:22:37;17.70;;;9.97;;
18867;SDS011;9563;49.240;9.088;2023-04-06T08:25:04;14.50;;;9.77;;
18867;SDS011;9563;49.240;9.088;2023-04-06T08:27:33;14.07;;;8.73;;
18867;SDS011;9563;49.240;9.088;2023-04-06T08:30:00;18.97;;;9.10;;
18867;SDS011;9563;49.240;9.088;2023-04-06T08:32:27;14.70;;;8.73;;
18867;SDS011;9563;49.240;9.088;2023-04-06T08:34:54;14.13;;;8.80;;
18867;SDS011;9563;49.240;9.088;2023-04-06T08:37:21;14.95;;;8.25;;
18867;SDS011;9563;49.240;9.088;2023-04-06T08:39:48;14.88;;;9.43;;
18867;SDS011;9563;49.240;9.088;2023-04-06T08:42:18;11.73;;;8.38;;
18867;SDS011;9563;49.240;9.088;2023-04-06T08:44:48;17.42;;;9.70;;
18867;SDS011;9563;49.240;9.088;2023-04-06T08:47:16;17.38;;;8.23;;
18867;SDS011;9563;49.240;9.088;2023-04-06T08:49:43;14.60;;;9.70;;
18867;SDS011;9563;49.240;9.088;2023-04-06T08:52:11;19.67;;;8.95;;
18867;SDS011;9563;49.240;9.088;2023-04-06T08:54:38;13.82;;;7.85;;
18867;SDS011;9563;49.240;9.088;2023-04-06T08:57:05;16.00;;;8.85;;
18867;SDS011;9563;49.240;9.088;2023-04-06T08:59:33;16.45;;;9.88;;
18867;SDS011;9563;49.240;9.088;2023-04-06T09:02:03;15.68;;;8.70;;
18867;SDS011;9563;49.240;9.088;2023-04-06T09:04:31;16.98;;;8.55;;
18867;SDS011;9563;49.240;9.088;2023-04-06T09:06:59;14.18;;;8.18;;
18867;SDS011;9563;49.240;9.088;2023-04-06T09:09:27;17.92;;;9.40;;
18867;SDS011;9563;49.240;9.088;2023-04-06T09:11:54;11.27;;;7.88;;
18867;SDS011;9563;49.240;9.088;2023-04-06T09:14:33;14.50;;;8.40;;
18867;SDS011;9563;49.240;9.088;2023-04-06T09:17:03;16.33;;;8.02;;
18867;SDS011;9563;49.240;9.088;2023-04-06T09:19:30;11.63;;;7.25;;
18867;SDS011;9563;49.240;9.088;2023-04-06T09:22:01;14.20;;;7.63;;
18867;SDS011;9563;49.240;9.088;2023-04-06T09:24:38;14.85;;;7.47;;
18867;SDS011;9563;49.240;9.088;2023-04-06T09:27:06;14.80;;;7.65;;
18867;SDS011;9563;49.240;9.088;2023-04-06T09:29:33;15.48;;;8.13;;
18867;SDS011;9563;49.240;9.088;2023-04-06T09:32:03;16.25;;;8.48;;
18867;SDS011;9563;49.240;9.088;2023-04-06T09:34:32;14.27;;;8.68;;
18867;SDS011;9563;49.240;9.088;2023-04-06T09:36:59;12.73;;;8.43;;
18867;SDS011;9563;49.240;9.088;2023-04-06T09:39:26;14.00;;;7.25;;
18867;SDS011;9563;49.240;9.088;2023-04-06T09:41:54;14.85;;;8.07;;
18867;SDS011;9563;49.240;9.088;2023-04-06T09:44:21;13.60;;;7.95;;
18867;SDS011;9563;49.240;9.088;2023-04-06T09:46:49;11.02;;;8.05;;
18867;SDS011;9563;49.240;9.088;2023-04-06T09:49:21;13.63;;;7.68;;
18867;SDS011;9563;49.240;9.088;2023-04-06T09:51:51;11.60;;;7.63;;
18867;SDS011;9563;49.240;9.088;2023-04-06T09:54:22;11.98;;;7.57;;
18867;SDS011;9563;49.240;9.088;2023-04-06T09:56:50;16.15;;;7.97;;
18867;SDS011;9563;49.240;9.088;2023-04-06T09:59:24;13.60;;;7.93;;
18867;SDS011;9563;49.240;9.088;2023-04-06T10:01:58;13.23;;;8.15;;
18867;SDS011;9563;49.240;9.088;2023-04-06T10:04:29;11.85;;;7.63;;
18867;SDS011;9563;49.240;9.088;2023-04-06T10:07:03;14.30;;;7.57;;
18867;SDS011;9563;49.240;9.088;2023-04-06T10:09:31;12.10;;;7.68;;
18867;SDS011;9563;49.240;9.088;2023-04-06T10:12:02;13.52;;;7.85;;
18867;SDS011;9563;49.240;9.088;2023-04-06T10:14:31;11.95;;;7.65;;
18867;SDS011;9563;49.240;9.088;2023-04-06T10:17:00;14.43;;;7.50;;
18867;SDS011;9563;49.240;9.088;2023-04-06T10:19:32;14.95;;;7.60;;
18867;SDS011;9563;49.240;9.088;2023-04-06T10:22:05;11.30;;;7.40;;
18867;SDS011;9563;49.240;9.088;2023-04-06T10:24:36;12.48;;;7.00;;
18867;SDS011;9563;49.240;9.088;2023-04-06T10:27:03;13.05;;;6.90;;
18867;SDS011;9563;49.240;9.088;2023-04-06T10:29:43;11.43;;;6.63;;
18867;SDS011;9563;49.240;9.088;2023-04-06T10:32:12;13.93;;;6.82;;
18867;SDS011;9563;49.240;9.088;2023-04-06T10:34:41;11.85;;;7.78;;
18867;SDS011;9563;49.240;9.088;2023-04-06T10:37:15;14.05;;;7.93;;
18867;SDS011;9563;49.240;9.088;2023-04-06T10:39:46;10.52;;;7.50;;
18867;SDS011;9563;49.240;9.088;2023-04-06T10:42:14;10.30;;;6.95;;
18867;SDS011;9563;49.240;9.088;2023-04-06T10:44:44;12.55;;;7.45;;
18867;SDS011;9563;49.240;9.088;2023-04-06T10:47:17;10.75;;;6.93;;
18867;SDS011;9563;49.240;9.088;2023-04-06T10:49:45;12.60;;;7.13;;
18867;SDS011;9563;49.240;9.088;2023-04-06T10:52:12;12.65;;;6.82;;
18867;SDS011;9563;49.240;9.088;2023-04-06T10:54:41;11.93;;;6.75;;
18867;SDS011;9563;49.240;9.088;2023-04-06T10:57:09;11.77;;;7.47;;
18867;SDS011;9563;49.240;9.088;2023-04-06T10:59:37;11.73;;;7.38;;
18867;SDS011;9563;49.240;9.088;2023-04-06T11:02:11;14.10;;;7.88;;
18867;SDS011;9563;49.240;9.088;2023-04-06T11:04:54;16.63;;;8.18;;
18867;SDS011;9563;49.240;9.088;2023-04-06T11:07:23;12.60;;;7.85;;
18867;SDS011;9563;49.240;9.088;2023-04-06T11:09:51;11.95;;;7.22;;
18867;SDS011;9563;49.240;9.088;2023-04-06T11:12:22;11.93;;;6.95;;
18867;SDS011;9563;49.240;9.088;2023-04-06T11:14:54;11.80;;;7.97;;
18867;SDS011;9563;49.240;9.088;2023-04-06T11:17:26;11.70;;;7.25;;
18867;SDS011;9563;49.240;9.088;2023-04-06T11:19:55;14.27;;;7.60;;
18867;SDS011;9563;49.240;9.088;2023-04-06T11:22:22;12.73;;;7.93;;
18867;SDS011;9563;49.240;9.088;2023-04-06T11:24:50;12.25;;;7.45;;
18867;SDS011;9563;49.240;9.088;2023-04-06T11:27:17;14.48;;;7.90;;
18867;SDS011;9563;49.240;9.088;2023-04-06T11:29:45;14.07;;;7.78;;
18867;SDS011;9563;49.240;9.088;2023-04-06T11:32:19;11.60;;;7.40;;
18867;SDS011;9563;49.240;9.088;2023-04-06T11:34:47;14.77;;;8.38;;
18867;SDS011;9563;49.240;9.088;2023-04-06T11:37:16;10.95;;;6.70;;
18867;SDS011;9563;49.240;9.088;2023-04-06T11:39:43;13.93;;;7.57;;
18867;SDS011;9563;49.240;9.088;2023-04-06T11:42:21;13.43;;;7.30;;
18867;SDS011;9563;49.240;9.088;2023-04-06T11:44:50;11.73;;;6.75;;
18867;SDS011;9563;49.240;9.088;2023-04-06T11:47:18;10.57;;;6.85;;
18867;SDS011;9563;49.240;9.088;2023-04-06T11:49:45;10.02;;;6.80;;
18867;SDS011;9563;49.240;9.088;2023-04-06T11:52:19;11.65;;;6.80;;
18867;SDS011;9563;49.240;9.088;2023-04-06T11:54:47;14.82;;;7.93;;
18867;SDS011;9563;49.240;9.088;2023-04-06T11:57:17;11.07;;;7.07;;
18867;SDS011;9563;49.240;9.088;2023-04-06T11:59:45;12.88;;;7.35;;
18867;SDS011;9563;49.240;9.088;2023-04-06T12:02:12;14.85;;;7.93;;
18867;SDS011;9563;49.240;9.088;2023-04-06T12:04:39;17.23;;;7.93;;
18867;SDS011;9563;49.240;9.088;2023-04-06T12:07:06;15.55;;;7.72;;
18867;SDS011;9563;49.240;9.088;2023-04-06T12:09:35;12.93;;;7.70;;
18867;SDS011;9563;49.240;9.088;2023-04-06T12:12:02;11.52;;;7.35;;
18867;SDS011;9563;49.240;9.088;2023-04-06T12:14:30;12.52;;;7.15;;
18867;SDS011;9563;49.240;9.088;2023-04-06T12:16:57;13.93;;;7.80;;
18867;SDS011;9563;49.240;9.088;2023-04-06T12:19:24;12.93;;;7.63;;
18867;SDS011;9563;49.240;9.088;2023-04-06T12:21:51;13.02;;;6.75;;
18867;SDS011;9563;49.240;9.088;2023-04-06T12:24:19;18.48;;;8.65;;
18867;SDS011;9563;49.240;9.088;2023-04-06T12:26:47;12.95;;;7.43;;
18867;SDS011;9563;49.240;9.088;2023-04-06T12:29:15;12.73;;;8.13;;
18867;SDS011;9563;49.240;9.088;2023-04-06T12:31:42;19.70;;;9.05;;
18867;SDS011;9563;49.240;9.088;2023-04-06T12:34:10;12.27;;;7.82;;
18867;SDS011;9563;49.240;9.088;2023-04-06T12:36:37;12.32;;;6.88;;
18867;SDS011;9563;49.240;9.088;2023-04-06T12:39:04;13.10;;;6.80;;
18867;SDS011;9563;49.240;9.088;2023-04-06T12:41:32;14.38;;;8.30;;
18867;SDS011;9563;49.240;9.088;2023-04-06T12:44:00;11.75;;;7.55;;
18867;SDS011;9563;49.240;9.088;2023-04-06T12:46:28;17.92;;;7.80;;
18867;SDS011;9563;49.240;9.088;2023-04-06T12:48:56;15.65;;;7.18;;
18867;SDS011;9563;49.240;9.088;2023-04-06T12:51:24;13.50;;;7.45;;
18867;SDS011;9563;49.240;9.088;2023-04-06T12:53:53;10.68;;;7.10;;
18867;SDS011;9563;49.240;9.088;2023-04-06T12:56:21;9.73;;;6.20;;
18867;SDS011;9563;49.240;9.088;2023-04-06T12:58:49;11.35;;;7.18;;
18867;SDS011;9563;49.240;9.088;2023-04-06T13:01:19;9.50;;;6.65;;
18867;SDS011;9563;49.240;9.088;2023-04-06T13:03:46;11.48;;;6.60;;
18867;SDS011;9563;49.240;9.088;2023-04-06T13:06:13;9.45;;;6.32;;
18867;SDS011;9563;49.240;9.088;2023-04-06T13:08:40;11.07;;;6.32;;
18867;SDS011;9563;49.240;9.088;2023-04-06T13:11:07;11.45;;;6.60;;
18867;SDS011;9563;49.240;9.088;2023-04-06T13:13:34;10.70;;;6.97;;
18867;SDS011;9563;49.240;9.088;2023-04-06T13:16:03;10.77;;;6.75;;
18867;SDS011;9563;49.240;9.088;2023-04-06T13:18:34;17.83;;;6.80;;
18867;SDS011;9563;49.240;9.088;2023-04-06T13:21:03;10.20;;;6.65;;
18867;SDS011;9563;49.240;9.088;2023-04-06T13:23:30;9.60;;;6.72;;
18867;SDS011;9563;49.240;9.088;2023-04-06T13:25:58;12.30;;;7.25;;
18867;SDS011;9563;49.240;9.088;2023-04-06T13:28:26;16.30;;;7.35;;
18867;SDS011;9563;49.240;9.088;2023-04-06T13:30:54;14.30;;;7.53;;
18867;SDS011;9563;49.240;9.088;2023-04-06T13:33:21;11.43;;;6.88;;
18867;SDS011;9563;49.240;9.088;2023-04-06T13:35:49;10.00;;;6.45;;
18867;SDS011;9563;49.240;9.088;2023-04-06T13:38:16;12.85;;;7.10;;
18867;SDS011;9563;49.240;9.088;2023-04-06T13:40:44;12.10;;;6.80;;
18867;SDS011;9563;49.240;9.088;2023-04-06T13:43:11;10.82;;;6.35;;
18867;SDS011;9563;49.240;9.088;2023-04-06T13:45:38;12.40;;;6.85;;
18867;SDS011;9563;49.240;9.088;2023-04-06T13:48:05;12.85;;;7.20;;
18867;SDS011;9563;49.240;9.088;2023-04-06T13:50:32;10.95;;;6.55;;
18867;SDS011;9563;49.240;9.088;2023-04-06T13:53:01;14.65;;;7.57;;
18867;SDS011;9563;49.240;9.088;2023-04-06T13:55:28;8.95;;;6.50;;
18867;SDS011;9563;49.240;9.088;2023-04-06T13:57:56;12.63;;;6.88;;
18867;SDS011;9563;49.240;9.088;2023-04-06T14:00:24;13.35;;;7.30;;
18867;SDS011;9563;49.240;9.088;2023-04-06T14:02:53;8.95;;;5.75;;
18867;SDS011;9563;49.240;9.088;2023-04-06T14:05:20;13.52;;;7.00;;
18867;SDS011;9563;49.240;9.088;2023-04-06T14:07:48;10.82;;;6.60;;
18867;SDS011;9563;49.240;9.088;2023-04-06T14:10:17;10.30;;;6.95;;
18867;SDS011;9563;49.240;9.088;2023-04-06T14:12:46;15.38;;;6.70;;
18867;SDS011;9563;49.240;9.088;2023-04-06T14:15:13;11.13;;;7.15;;
18867;SDS011;9563;49.240;9.088;2023-04-06T14:17:40;11.63;;;6.72;;
18867;SDS011;9563;49.240;9.088;2023-04-06T14:20:07;11.80;;;6.85;;
18867;SDS011;9563;49.240;9.088;2023-04-06T14:22:39;11.43;;;6.25;;
18867;SDS011;9563;49.240;9.088;2023-04-06T14:25:08;9.13;;;5.82;;
18867;SDS011;9563;49.240;9.088;2023-04-06T14:27:37;9.55;;;6.25;;
18867;SDS011;9563;49.240;9.088;2023-04-06T14:30:04;12.73;;;6.13;;
18867;SDS011;9563;49.240;9.088;2023-04-06T14:32:32;9.75;;;5.45;;
18867;SDS011;9563;49.240;9.088;2023-04-06T14:34:59;12.80;;;6.03;;
18867;SDS011;9563;49.240;9.088;2023-04-06T14:37:26;10.52;;;6.63;;
18867;SDS011;9563;49.240;9.088;2023-04-06T14:39:53;12.10;;;6.53;;
18867;SDS011;9563;49.240;9.088;2023-04-06T14:42:20;11.63;;;6.53;;
18867;SDS011;9563;49.240;9.088;2023-04-06T14:44:49;13.57;;;6.63;;
18867;SDS011;9563;49.240;9.088;2023-04-06T14:47:17;10.35;;;6.13;;
18867;SDS011;9563;49.240;9.088;2023-04-06T14:49:45;12.95;;;6.80;;
18867;SDS011;9563;49.240;9.088;2023-04-06T14:52:12;13.98;;;6.47;;
18867;SDS011;9563;49.240;9.088;2023-04-06T14:54:40;14.57;;;6.43;;
18867;SDS011;9563;49.240;9.088;2023-04-06T14:57:07;13.73;;;6.95;;
18867;SDS011;9563;49.240;9.088;2023-04-06T14:59:34;14.27;;;6.70;;
18867;SDS011;9563;49.240;9.088;2023-04-06T15:02:03;10.90;;;7.38;;
18867;SDS011;9563;49.240;9.088;2023-04-06T15:04:30;11.88;;;6.38;;
18867;SDS011;9563;49.240;9.088;2023-04-06T15:06:59;10.40;;;6.47;;
18867;SDS011;9563;49.240;9.088;2023-04-06T15:09:26;11.07;;;6.60;;
18867;SDS011;9563;49.240;9.088;2023-04-06T15:11:53;11.57;;;7.18;;
18867;SDS011;9563;49.240;9.088;2023-04-06T15:14:20;10.48;;;6.95;;
18867;SDS011;9563;49.240;9.088;2023-04-06T15:16:47;14.20;;;7.20;;
18867;SDS011;9563;49.240;9.088;2023-04-06T15:19:15;15.50;;;6.43;;
18867;SDS011;9563;49.240;9.088;2023-04-06T15:21:42;12.13;;;6.18;;
18867;SDS011;9563;49.240;9.088;2023-04-06T15:24:09;19.50;;;5.80;;
18867;SDS011;9563;49.240;9.088;2023-04-06T15:26:36;14.05;;;6.38;;
18867;SDS011;9563;49.240;9.088;2023-04-06T15:29:04;12.60;;;6.25;;
18867;SDS011;9563;49.240;9.088;2023-04-06T15:31:31;11.35;;;6.55;;
18867;SDS011;9563;49.240;9.088;2023-04-06T15:33:58;11.35;;;6.32;;
18867;SDS011;9563;49.240;9.088;2023-04-06T15:36:27;12.10;;;6.40;;
18867;SDS011;9563;49.240;9.088;2023-04-06T15:38:55;11.48;;;6.18;;
18867;SDS011;9563;49.240;9.088;2023-04-06T15:41:22;16.90;;;6.32;;
18867;SDS011;9563;49.240;9.088;2023-04-06T15:43:50;11.70;;;6.05;;
18867;SDS011;9563;49.240;9.088;2023-04-06T15:46:17;12.20;;;7.18;;
18867;SDS011;9563;49.240;9.088;2023-04-06T15:48:45;11.73;;;6.50;;
18867;SDS011;9563;49.240;9.088;2023-04-06T15:51:12;12.50;;;7.28;;
18867;SDS011;9563;49.240;9.088;2023-04-06T15:53:42;16.08;;;6.95;;
18867;SDS011;9563;49.240;9.088;2023-04-06T15:56:09;13.18;;;6.95;;
18867;SDS011;9563;49.240;9.088;2023-04-06T15:58:38;10.57;;;5.82;;
18867;SDS011;9563;49.240;9.088;2023-04-06T16:01:14;12.90;;;7.00;;
18867;SDS011;9563;49.240;9.088;2023-04-06T16:03:43;11.68;;;7.43;;
18867;SDS011;9563;49.240;9.088;2023-04-06T16:06:11;8.70;;;6.00;;
18867;SDS011;9563;49.240;9.088;2023-04-06T16:08:38;11.40;;;6.30;;
18867;SDS011;9563;49.240;9.088;2023-04-06T16:11:06;13.35;;;5.90;;
18867;SDS011;9563;49.240;9.088;2023-04-06T16:13:33;11.63;;;6.28;;
18867;SDS011;9563;49.240;9.088;2023-04-06T16:16:01;14.95;;;6.15;;
18867;SDS011;9563;49.240;9.088;2023-04-06T16:18:28;14.52;;;6.38;;
18867;SDS011;9563;49.240;9.088;2023-04-06T16:20:56;12.15;;;6.45;;
18867;SDS011;9563;49.240;9.088;2023-04-06T16:23:23;10.43;;;6.32;;
18867;SDS011;9563;49.240;9.088;2023-04-06T16:25:51;9.75;;;5.65;;
18867;SDS011;9563;49.240;9.088;2023-04-06T16:28:20;12.65;;;6.43;;
18867;SDS011;9563;49.240;9.088;2023-04-06T16:30:49;10.70;;;5.80;;
18867;SDS011;9563;49.240;9.088;2023-04-06T16:33:16;10.82;;;6.28;;
18867;SDS011;9563;49.240;9.088;2023-04-06T16:35:43;13.32;;;6.20;;
18867;SDS011;9563;49.240;9.088;2023-04-06T16:38:11;10.88;;;5.50;;
18867;SDS011;9563;49.240;9.088;2023-04-06T16:40:38;9.60;;;4.95;;
18867;SDS011;9563;49.240;9.088;2023-04-06T16:43:05;11.57;;;5.53;;
18867;SDS011;9563;49.240;9.088;2023-04-06T16:45:35;14.65;;;5.70;;
18867;SDS011;9563;49.240;9.088;2023-04-06T16:48:02;10.32;;;5.30;;
18867;SDS011;9563;49.240;9.088;2023-04-06T16:50:29;11.38;;;5.70;;
18867;SDS011;9563;49.240;9.088;2023-04-06T16:52:55;9.45;;;4.80;;
18867;SDS011;9563;49.240;9.088;2023-04-06T16:55:22;9.10;;;5.07;;
18867;SDS011;9563;49.240;9.088;2023-04-06T16:57:49;10.23;;;5.63;;
18867;SDS011;9563;49.240;9.088;2023-04-06T17:00:20;9.43;;;5.18;;
18867;SDS011;9563;49.240;9.088;2023-04-06T17:02:49;10.45;;;5.65;;
18867;SDS011;9563;49.240;9.088;2023-04-06T17:05:16;11.57;;;5.32;;
18867;SDS011;9563;49.240;9.088;2023-04-06T17:07:48;10.70;;;4.68;;
18867;SDS011;9563;49.240;9.088;2023-04-06T17:10:15;12.60;;;5.30;;
18867;SDS011;9563;49.240;9.088;2023-04-06T17:12:42;10.10;;;4.47;;
18867;SDS011;9563;49.240;9.088;2023-04-06T17:15:10;7.88;;;4.57;;
18867;SDS011;9563;49.240;9.088;2023-04-06T17:17:37;9.48;;;4.80;;
18867;SDS011;9563;49.240;9.088;2023-04-06T17:20:07;8.63;;;4.88;;
18867;SDS011;9563;49.240;9.088;2023-04-06T17:22:34;8.50;;;4.90;;
18867;SDS011;9563;49.240;9.088;2023-04-06T17:25:03;7.82;;;4.45;;
18867;SDS011;9563;49.240;9.088;2023-04-06T17:27:30;12.18;;;4.85;;
18867;SDS011;9563;49.240;9.088;2023-04-06T17:29:57;8.85;;;4.57;;
18867;SDS011;9563;49.240;9.088;2023-04-06T17:32:30;8.00;;;4.35;;
18867;SDS011;9563;49.240;9.088;2023-04-06T17:34:57;11.07;;;5.18;;
18867;SDS011;9563;49.240;9.088;2023-04-06T17:37:26;9.15;;;4.43;;
18867;SDS011;9563;49.240;9.088;2023-04-06T17:39:53;9.48;;;4.55;;
18867;SDS011;9563;49.240;9.088;2023-04-06T17:42:20;7.88;;;4.32;;
18867;SDS011;9563;49.240;9.088;2023-04-06T17:44:47;10.77;;;4.50;;
18867;SDS011;9563;49.240;9.088;2023-04-06T17:47:14;10.88;;;4.85;;
18867;SDS011;9563;49.240;9.088;2023-04-06T17:49:41;10.15;;;5.03;;
18867;SDS011;9563;49.240;9.088;2023-04-06T17:52:08;10.10;;;5.15;;
18867;SDS011;9563;49.240;9.088;2023-04-06T17:54:37;13.60;;;4.13;;
18867;SDS011;9563;49.240;9.088;2023-04-06T17:57:04;10.75;;;4.88;;
18867;SDS011;9563;49.240;9.088;2023-04-06T17:59:31;11.13;;;5.32;;
18867;SDS011;9563;49.240;9.088;2023-04-06T18:01:58;10.98;;;5.05;;
18867;SDS011;9563;49.240;9.088;2023-04-06T18:04:26;12.25;;;4.80;;
18867;SDS011;9563;49.240;9.088;2023-04-06T18:06:53;8.95;;;4.90;;
18867;SDS011;9563;49.240;9.088;2023-04-06T18:09:20;11.48;;;5.47;;
18867;SDS011;9563;49.240;9.088;2023-04-06T18:11:49;7.75;;;4.47;;
18867;SDS011;9563;49.240;9.088;2023-04-06T18:14:16;11.73;;;5.13;;
18867;SDS011;9563;49.240;9.088;2023-04-06T18:16:42;9.38;;;4.68;;
18867;SDS011;9563;49.240;9.088;2023-04-06T18:19:09;8.25;;;4.80;;
18867;SDS011;9563;49.240;9.088;2023-04-06T18:21:36;8.77;;;4.53;;
18867;SDS011;9563;49.240;9.088;2023-04-06T18:24:03;13.52;;;5.10;;
18867;SDS011;9563;49.240;9.088;2023-04-06T18:26:30;12.27;;;5.07;;
18867;SDS011;9563;49.240;9.088;2023-04-06T18:28:59;9.27;;;4.82;;
18867;SDS011;9563;49.240;9.088;2023-04-06T18:31:26;6.80;;;3.50;;
18867;SDS011;9563;49.240;9.088;2023-04-06T18:33:54;7.07;;;3.17;;
18867;SDS011;9563;49.240;9.088;2023-04-06T18:36:21;4.60;;;2.40;;
18867;SDS011;9563;49.240;9.088;2023-04-06T18:38:48;4.53;;;2.58;;
18867;SDS011;9563;49.240;9.088;2023-04-06T18:41:15;3.50;;;2.38;;
18867;SDS011;9563;49.240;9.088;2023-04-06T18:43:42;3.63;;;2.25;;
18867;SDS011;9563;49.240;9.088;2023-04-06T18:46:11;5.90;;;2.58;;
18867;SDS011;9563;49.240;9.088;2023-04-06T18:48:38;4.38;;;2.60;;
18867;SDS011;9563;49.240;9.088;2023-04-06T18:51:06;5.30;;;2.38;;
18867;SDS011;9563;49.240;9.088;2023-04-06T18:53:33;3.22;;;2.10;;
18867;SDS011;9563;49.240;9.088;2023-04-06T18:56:00;7.10;;;2.60;;
18867;SDS011;9563;49.240;9.088;2023-04-06T18:58:27;6.38;;;2.83;;
18867;SDS011;9563;49.240;9.088;2023-04-06T19:00:55;5.38;;;2.35;;
18867;SDS011;9563;49.240;9.088;2023-04-06T19:03:23;6.22;;;3.45;;
18867;SDS011;9563;49.240;9.088;2023-04-06T19:05:51;8.70;;;4.30;;
18867;SDS011;9563;49.240;9.088;2023-04-06T19:08:18;12.95;;;5.00;;
18867;SDS011;9563;49.240;9.088;2023-04-06T19:10:45;16.63;;;5.53;;
18867;SDS011;9563;49.240;9.088;2023-04-06T19:13:13;17.15;;;5.97;;
18867;SDS011;9563;49.240;9.088;2023-04-06T19:15:40;14.85;;;5.90;;
18867;SDS011;9563;49.240;9.088;2023-04-06T19:18:07;6.15;;;3.45;;
18867;SDS011;9563;49.240;9.088;2023-04-06T19:20:35;5.10;;;3.25;;
18867;SDS011;9563;49.240;9.088;2023-04-06T19:23:02;9.10;;;3.67;;
18867;SDS011;9563;49.240;9.088;2023-04-06T19:25:30;8.75;;;3.97;;
18867;SDS011;9563;49.240;9.088;2023-04-06T19:27:57;6.53;;;4.05;;
18867;SDS011;9563;49.240;9.088;2023-04-06T19:30:24;6.78;;;3.90;;
18867;SDS011;9563;49.240;9.088;2023-04-06T19:32:51;8.23;;;5.00;;
18867;SDS011;9563;49.240;9.088;2023-04-06T19:35:19;5.35;;;3.85;;
18867;SDS011;9563;49.240;9.088;2023-04-06T19:37:48;5.70;;;3.92;;
18867;SDS011;9563;49.240;9.088;2023-04-06T19:40:15;7.35;;;4.40;;
18867;SDS011;9563;49.240;9.088;2023-04-06T19:42:42;8.50;;;4.07;;
18867;SDS011;9563;49.240;9.088;2023-04-06T19:45:09;7.93;;;4.10;;
18867;SDS011;9563;49.240;9.088;2023-04-06T19:47:36;6.32;;;3.97;;
18867;SDS011;9563;49.240;9.088;2023-04-06T19:50:04;5.75;;;3.75;;
18867;SDS011;9563;49.240;9.088;2023-04-06T19:52:34;12.52;;;4.15;;
18867;SDS011;9563;49.240;9.088;2023-04-06T19:55:03;7.68;;;3.90;;